createdAt,value
2022-09-04T00:02:23.479Z,99.90
2022-09-04T00:05:21.537Z,99.90
2022-09-04T00:08:22.292Z,99.90
2022-09-04T00:11:22.714Z,99.90
2022-09-04T00:14:00.254Z,99.90
2022-09-04T00:17:05.584Z,99.90
2022-09-04T00:19:52.034Z,99.90
2022-09-04T00:22:47.220Z,99.90
2022-09-04T00:25:31.507Z,99.90
2022-09-04T00:28:27.406Z,99.90
2022-09-04T00:31:09.393Z,99.90
2022-09-04T00:34:13.784Z,99.90
2022-09-04T00:36:50.364Z,99.90
2022-09-04T00:39:55.625Z,99.90
2022-09-04T00:42:55.336Z,99.90
2022-09-04T00:45:51.429Z,99.90
2022-09-04T00:49:00.305Z,99.90
2022-09-04T00:52:04.945Z,99.90
2022-09-04T00:54:49.675Z,99.90
2022-09-04T00:57:50.954Z,99.90
2022-09-04T01:00:24.254Z,99.90
2022-09-04T01:03:33.055Z,99.90
2022-09-04T01:06:37.278Z,99.90
2022-09-04T01:09:28.881Z,99.90
2022-09-04T01:12:37.608Z,99.90
2022-09-04T01:15:24.367Z,99.90
2022-09-04T01:18:17.752Z,99.90
2022-09-04T01:21:15.614Z,99.90
2022-09-04T01:24:24.389Z,99.90
2022-09-04T01:27:33.068Z,99.90
2022-09-04T01:30:16.903Z,99.90
2022-09-04T01:33:15.263Z,99.90
2022-09-04T01:36:10.127Z,99.90
2022-09-04T01:39:00.555Z,99.90
2022-09-04T01:41:38.492Z,99.90
2022-09-04T01:44:14.239Z,99.90
2022-09-04T01:47:09.990Z,99.90
2022-09-04T01:50:10.484Z,99.90
2022-09-04T01:53:04.265Z,99.90
2022-09-04T01:56:00.362Z,99.90
2022-09-04T01:58:52.855Z,99.90
2022-09-04T02:01:48.645Z,99.90
2022-09-04T02:04:57.426Z,99.90
2022-09-04T02:07:58.500Z,99.90
2022-09-04T02:10:58.085Z,99.90
2022-09-04T02:14:10.332Z,99.90
2022-09-04T02:17:00.723Z,99.90
2022-09-04T02:19:59.458Z,99.90
2022-09-04T02:22:56.683Z,99.90
2022-09-04T02:26:05.480Z,99.90
2022-09-04T02:29:08.577Z,99.90
2022-09-04T02:31:56.543Z,99.90
2022-09-04T02:34:45.158Z,99.90
2022-09-04T02:37:50.673Z,99.90
2022-09-04T02:40:47.945Z,99.90
2022-09-04T02:43:59.175Z,99.90
2022-09-04T02:47:03.846Z,99.90
2022-09-04T02:50:12.609Z,99.90
2022-09-04T02:53:22.118Z,99.90
2022-09-04T02:56:32.917Z,99.90
2022-09-04T02:59:31.305Z,99.90
2022-09-04T03:02:06.770Z,99.90
2022-09-04T03:04:51.604Z,99.90
2022-09-04T03:07:34.248Z,99.90
2022-09-04T03:10:29.659Z,99.90
2022-09-04T03:13:24.026Z,99.90
2022-09-04T03:16:05.099Z,99.90
2022-09-04T03:18:58.360Z,99.90
2022-09-04T03:22:07.094Z,99.90
2022-09-04T03:25:14.309Z,99.90
2022-09-04T03:27:44.091Z,99.90
2022-09-04T03:30:15.586Z,99.90
2022-09-04T03:33:12.961Z,99.90
2022-09-04T03:36:09.094Z,99.50
2022-09-04T03:39:14.056Z,99.00
2022-09-04T03:42:20.811Z,98.50
2022-09-04T03:45:17.562Z,97.60
2022-09-04T03:48:17.397Z,98.10
2022-09-04T03:51:10.170Z,98.20
2022-09-04T03:54:09.968Z,98.30
2022-09-04T03:57:09.900Z,98.40
2022-09-04T04:00:22.068Z,98.60
2022-09-04T04:03:22.226Z,98.50
2022-09-04T04:06:16.507Z,98.70
2022-09-04T04:09:13.848Z,99.00
2022-09-04T04:12:18.321Z,99.30
2022-09-04T04:15:14.610Z,99.40
2022-09-04T04:18:18.610Z,99.60
2022-09-04T04:21:29.298Z,99.60
2022-09-04T04:24:18.609Z,99.50
2022-09-04T04:27:23.658Z,99.60
2022-09-04T04:30:07.388Z,99.60
2022-09-04T04:33:10.063Z,99.70
2022-09-04T04:36:19.303Z,99.80
2022-09-04T04:39:16.576Z,99.80
2022-09-04T04:42:19.214Z,99.80
2022-09-04T04:45:33.353Z,99.70
2022-09-04T04:48:42.048Z,99.60
2022-09-04T04:51:43.075Z,99.30
2022-09-04T04:54:44.157Z,99.20
2022-09-04T04:57:45.001Z,98.80
2022-09-04T05:00:26.841Z,98.70
2022-09-04T05:03:27.160Z,98.70
2022-09-04T05:06:26.527Z,98.30
2022-09-04T05:09:24.746Z,98.30
2022-09-04T05:12:33.447Z,98.20
2022-09-04T05:15:15.367Z,98.10
2022-09-04T05:18:03.413Z,98.10
2022-09-04T05:21:01.834Z,98.10
2022-09-04T05:24:09.731Z,98.00
2022-09-04T05:27:03.927Z,98.00
2022-09-04T05:30:12.645Z,98.00
2022-09-04T05:33:07.865Z,97.80
2022-09-04T05:36:00.490Z,97.80
2022-09-04T05:38:55.964Z,97.50
2022-09-04T05:42:06.761Z,97.50
2022-09-04T05:45:12.101Z,97.30
2022-09-04T05:48:06.459Z,96.70
2022-09-04T05:50:59.635Z,96.40
2022-09-04T05:54:00.763Z,96.50
2022-09-04T05:56:52.720Z,96.30
2022-09-04T05:59:55.104Z,95.90
2022-09-04T06:02:56.711Z,95.50
2022-09-04T06:05:53.850Z,95.50
2022-09-04T06:08:53.614Z,94.80
2022-09-04T06:12:02.289Z,94.90
2022-09-04T06:15:04.518Z,94.50
2022-09-04T06:17:57.926Z,94.40
2022-09-04T06:21:06.693Z,94.50
2022-09-04T06:24:04.452Z,94.20
2022-09-04T06:27:13.180Z,94.20
2022-09-04T06:30:03.965Z,94.10
2022-09-04T06:33:01.901Z,94.10
2022-09-04T06:36:04.216Z,94.30
2022-09-04T06:39:10.641Z,93.80
2022-09-04T06:42:13.471Z,93.80
2022-09-04T06:45:11.432Z,93.90
2022-09-04T06:48:20.454Z,93.90
2022-09-04T06:51:31.625Z,93.80
2022-09-04T06:54:35.843Z,93.80
2022-09-04T06:57:40.125Z,93.70
2022-09-04T07:00:19.093Z,93.80
2022-09-04T07:03:24.751Z,93.90
2022-09-04T07:06:14.874Z,93.80
2022-09-04T07:09:10.122Z,93.70
2022-09-04T07:12:18.928Z,93.80
2022-09-04T07:15:28.851Z,93.70
2022-09-04T07:18:37.895Z,93.70
2022-09-04T07:21:46.648Z,93.50
2022-09-04T07:24:58.574Z,93.10
2022-09-04T07:28:08.046Z,93.20
2022-09-04T07:31:02.763Z,93.20
2022-09-04T07:34:04.435Z,92.20
2022-09-04T07:36:46.757Z,91.70
2022-09-04T07:39:51.137Z,92.00
2022-09-04T07:42:49.829Z,92.30
2022-09-04T07:45:39.927Z,92.40
2022-09-04T07:48:48.917Z,93.00
2022-09-04T07:51:27.648Z,93.60
2022-09-04T07:54:32.454Z,93.90
2022-09-04T07:57:30.033Z,93.80
2022-09-04T08:00:22.716Z,92.60
2022-09-04T08:03:21.272Z,92.50
2022-09-04T08:06:24.599Z,92.40
2022-09-04T08:09:31.456Z,92.80
2022-09-04T08:12:28.251Z,93.70
2022-09-04T08:15:11.387Z,93.90
2022-09-04T08:18:09.140Z,93.00
2022-09-04T08:20:47.818Z,92.60
2022-09-04T08:23:51.562Z,93.40
2022-09-04T08:26:48.447Z,93.60
2022-09-04T08:29:41.745Z,93.90
2022-09-04T08:32:50.483Z,93.50
2022-09-04T08:35:32.037Z,93.80
2022-09-04T08:38:40.932Z,94.40
2022-09-04T08:41:50.545Z,94.00
2022-09-04T08:44:59.325Z,94.30
2022-09-04T08:48:11.282Z,94.40
2022-09-04T08:51:18.317Z,94.50
2022-09-04T08:54:27.735Z,94.90
2022-09-04T08:57:31.833Z,95.10
2022-09-04T09:00:12.251Z,95.00
2022-09-04T09:03:21.123Z,94.70
2022-09-04T09:06:21.660Z,94.30
2022-09-04T09:09:30.476Z,94.90
2022-09-04T09:12:41.227Z,94.60
2022-09-04T09:15:50.608Z,94.70
2022-09-04T09:18:59.320Z,95.10
2022-09-04T09:21:58.373Z,95.50
2022-09-04T09:25:07.826Z,95.20
2022-09-04T09:28:10.783Z,95.40
2022-09-04T09:31:13.186Z,95.60
2022-09-04T09:34:21.985Z,96.10
2022-09-04T09:37:30.675Z,95.80
2022-09-04T09:40:40.009Z,96.30
2022-09-04T09:43:50.022Z,96.20
2022-09-04T09:47:00.064Z,96.70
2022-09-04T09:50:03.407Z,96.90
2022-09-04T09:53:02.188Z,97.00
2022-09-04T09:56:11.103Z,96.80
2022-09-04T09:59:19.993Z,96.80
2022-09-04T10:02:27.405Z,96.90
2022-09-04T10:05:16.246Z,97.20
2022-09-04T10:08:35.363Z,97.10
2022-09-04T10:11:41.675Z,96.90
2022-09-04T10:14:50.467Z,97.30
2022-09-04T10:17:59.348Z,97.20
2022-09-04T10:21:12.043Z,97.00
2022-09-04T10:24:21.176Z,97.00
2022-09-04T10:27:29.899Z,97.00
2022-09-04T10:30:09.862Z,97.30
2022-09-04T10:33:11.665Z,97.00
2022-09-04T10:36:18.599Z,97.10
2022-09-04T10:39:44.697Z,97.30
2022-09-04T10:42:45.002Z,97.40
2022-09-04T10:45:34.904Z,97.50
2022-09-04T10:48:37.954Z,97.60
2022-09-04T10:51:47.299Z,97.40
2022-09-04T10:54:56.063Z,97.50
2022-09-04T10:58:04.716Z,97.80
2022-09-04T11:01:05.023Z,97.90
2022-09-04T11:04:14.810Z,98.00
2022-09-04T11:07:28.103Z,98.10
2022-09-04T11:10:37.590Z,98.30
2022-09-04T11:13:51.112Z,98.40
2022-09-04T11:17:00.363Z,98.50
2022-09-04T11:20:16.054Z,98.50
2022-09-04T11:23:26.886Z,98.60
2022-09-04T11:26:28.920Z,98.80
2022-09-04T11:29:20.205Z,99.00
2022-09-04T11:32:18.154Z,99.10
2022-09-04T11:35:21.913Z,99.20
2022-09-04T11:38:05.177Z,99.30
2022-09-04T11:41:04.323Z,99.30
2022-09-04T11:44:06.170Z,99.40
2022-09-04T11:47:05.884Z,99.60
2022-09-04T11:50:05.763Z,99.70
2022-09-04T11:53:14.685Z,99.80
2022-09-04T11:56:15.724Z,99.80
2022-09-04T11:59:05.703Z,99.90
2022-09-04T12:02:16.992Z,99.90
2022-09-04T12:05:40.804Z,99.80
2022-09-04T12:08:49.636Z,99.60
2022-09-04T12:11:58.343Z,99.50
2022-09-04T12:15:07.506Z,99.50
2022-09-04T12:18:10.285Z,99.40
2022-09-04T12:21:19.833Z,99.40
2022-09-04T12:24:20.234Z,99.50
2022-09-04T12:27:23.206Z,99.50
2022-09-04T12:30:16.871Z,99.60
2022-09-04T12:33:23.969Z,99.70
2022-09-04T12:36:34.766Z,99.70
2022-09-04T12:39:32.074Z,99.80
2022-09-04T12:42:21.808Z,99.90
2022-09-04T12:45:31.230Z,99.90
2022-09-04T12:48:29.486Z,99.90
2022-09-04T12:51:26.336Z,99.90
2022-09-04T12:54:22.558Z,99.90
2022-09-04T12:57:32.136Z,99.90
2022-09-04T13:00:18.486Z,99.90
2022-09-04T13:03:13.109Z,99.90
2022-09-04T13:06:12.089Z,99.90
2022-09-04T13:09:20.961Z,99.90
2022-09-04T13:12:26.288Z,99.90
2022-09-04T13:15:10.827Z,99.90
2022-09-04T13:18:19.576Z,99.90
2022-09-04T13:21:23.255Z,99.90
2022-09-04T13:24:29.728Z,99.90
2022-09-04T13:27:29.555Z,99.90
2022-09-04T13:30:13.838Z,99.90
2022-09-04T13:33:12.898Z,99.90
2022-09-04T13:36:12.856Z,99.90
2022-09-04T13:39:21.691Z,99.90
2022-09-04T13:42:20.909Z,99.90
2022-09-04T13:45:29.655Z,99.90
2022-09-04T13:48:21.687Z,99.90
2022-09-04T13:51:00.558Z,99.90
2022-09-04T13:54:04.846Z,99.90
2022-09-04T13:56:56.806Z,99.90
2022-09-04T13:59:28.034Z,99.90
2022-09-04T14:02:03.893Z,99.90
2022-09-04T14:04:42.790Z,99.90
2022-09-04T14:07:31.441Z,99.90
2022-09-04T14:10:06.109Z,99.90
2022-09-04T14:13:07.265Z,99.90
2022-09-04T14:15:53.181Z,99.90
2022-09-04T14:19:05.265Z,99.90
2022-09-04T14:22:07.139Z,99.90
2022-09-04T14:24:57.971Z,99.90
2022-09-04T14:27:52.039Z,99.90
2022-09-04T14:30:24.787Z,99.90
2022-09-04T14:33:19.341Z,99.90
2022-09-04T14:36:28.330Z,99.90
2022-09-04T14:39:28.991Z,99.90
2022-09-04T14:42:43.222Z,99.90
2022-09-04T14:45:54.001Z,99.90
2022-09-04T14:48:25.844Z,99.90
2022-09-04T14:51:13.080Z,99.90
2022-09-04T14:53:51.734Z,99.90
2022-09-04T14:56:47.621Z,99.90
2022-09-04T14:59:40.208Z,99.90
2022-09-04T15:02:49.192Z,99.90
2022-09-04T15:05:41.606Z,99.90
2022-09-04T15:08:14.601Z,99.90
2022-09-04T15:10:56.423Z,99.90
2022-09-04T15:13:55.518Z,99.90
2022-09-04T15:16:48.340Z,99.90
2022-09-04T15:19:51.666Z,99.90
2022-09-04T15:22:51.926Z,99.90
2022-09-04T15:26:00.624Z,99.90
2022-09-04T15:28:44.694Z,99.90
2022-09-04T15:31:35.542Z,99.90
2022-09-04T15:34:23.905Z,99.90
2022-09-04T15:36:53.915Z,99.90
2022-09-04T15:40:01.626Z,99.90
2022-09-04T15:46:09.299Z,99.90
2022-09-04T15:49:13.437Z,99.90
2022-09-04T15:52:12.094Z,99.90
2022-09-04T15:55:12.484Z,99.90
2022-09-04T15:58:13.724Z,99.90
2022-09-04T16:01:17.529Z,99.90
2022-09-04T16:04:27.987Z,99.90
2022-09-04T16:07:38.272Z,99.90
2022-09-04T16:10:26.391Z,99.90
2022-09-04T16:13:09.880Z,99.90
2022-09-04T16:15:47.090Z,99.90
2022-09-04T16:18:39.420Z,99.90
2022-09-04T16:21:32.132Z,99.90
2022-09-04T16:24:10.495Z,99.90
2022-09-04T16:26:41.098Z,99.90
2022-09-04T16:29:38.246Z,99.90
2022-09-04T16:32:12.403Z,99.90
2022-09-04T16:35:10.173Z,99.90
2022-09-04T16:38:03.497Z,99.90
2022-09-04T16:40:57.843Z,99.90
2022-09-04T16:43:35.736Z,99.90
2022-09-04T16:46:31.163Z,99.90
2022-09-04T16:49:10.269Z,99.90
2022-09-04T16:52:04.443Z,99.90
2022-09-04T16:54:49.012Z,99.90
2022-09-04T16:57:23.190Z,99.90
2022-09-04T17:00:15.278Z,99.90
2022-09-04T17:03:02.631Z,99.90
2022-09-04T17:05:48.110Z,99.90
2022-09-04T17:08:39.140Z,99.90
2022-09-04T17:11:26.525Z,99.90
2022-09-04T17:14:17.016Z,99.90
2022-09-04T17:17:31.583Z,99.90
2022-09-04T17:21:58.347Z,99.90
2022-09-04T17:28:57.815Z,99.90
2022-09-04T17:29:17.543Z,99.90
2022-09-04T17:29:54.062Z,99.90
2022-09-04T17:37:56.529Z,99.90
2022-09-04T17:40:33.383Z,99.90
2022-09-04T17:40:37.882Z,99.90
2022-09-04T17:42:16.764Z,99.90
2022-09-04T17:45:12.229Z,99.90
2022-09-04T17:47:44.286Z,99.90
2022-09-04T17:50:20.900Z,99.90
2022-09-04T17:53:17.700Z,99.90
2022-09-04T17:56:29.752Z,99.90
2022-09-04T17:59:10.242Z,99.90
2022-09-04T18:02:00.872Z,99.90
2022-09-04T18:05:09.932Z,99.90
2022-09-04T18:08:09.010Z,99.90
2022-09-04T18:11:19.683Z,99.90
2022-09-04T18:14:18.945Z,99.90
2022-09-04T18:17:20.561Z,99.90
2022-09-04T18:19:58.406Z,99.90
2022-09-04T18:22:52.310Z,99.90
2022-09-04T18:25:36.782Z,99.90
2022-09-04T18:28:27.228Z,99.90
2022-09-04T18:37:05.851Z,99.90
2022-09-04T18:37:18.392Z,99.90
2022-09-04T18:37:44.861Z,99.90
2022-09-04T18:41:56.873Z,99.90
2022-09-04T18:50:38.512Z,99.90
2022-09-04T18:50:40.489Z,99.90
2022-09-04T18:50:43.761Z,99.90
2022-09-04T18:52:48.193Z,99.90
2022-09-04T18:55:24.695Z,99.90
2022-09-04T18:58:33.467Z,99.90
2022-09-04T19:01:26.599Z,99.90
2022-09-04T19:04:33.332Z,99.90
2022-09-04T19:07:29.019Z,99.90
2022-09-04T19:10:31.889Z,99.90
2022-09-04T19:13:27.793Z,99.90
2022-09-04T19:16:13.510Z,99.90
2022-09-04T19:19:17.724Z,99.90
2022-09-04T19:22:17.328Z,99.90
2022-09-04T19:25:26.239Z,99.90
2022-09-04T19:28:01.554Z,99.90
2022-09-04T19:30:47.377Z,99.90
2022-09-04T19:33:52.178Z,99.90
2022-09-04T19:36:53.514Z,99.90
2022-09-04T19:45:47.545Z,99.90
2022-09-04T19:46:17.545Z,99.90
2022-09-04T19:46:29.025Z,99.90
2022-09-04T19:51:03.969Z,99.90
2022-09-04T19:53:30.184Z,99.90
2022-09-04T19:55:47.893Z,99.90
2022-09-04T19:58:22.883Z,99.90
2022-09-04T20:01:03.968Z,99.90
2022-09-04T20:03:38.736Z,99.90
2022-09-04T20:06:33.947Z,99.90
2022-09-04T20:09:42.879Z,99.90
2022-09-04T20:12:31.335Z,99.90
2022-09-04T20:15:28.315Z,99.90
2022-09-04T20:18:16.567Z,99.90
2022-09-04T20:21:27.676Z,99.90
2022-09-04T20:24:14.286Z,99.90
2022-09-04T20:27:26.183Z,99.90
2022-09-04T20:30:26.294Z,99.90
2022-09-04T20:33:08.477Z,99.90
2022-09-04T20:35:50.704Z,99.90
2022-09-04T20:38:34.518Z,99.90
2022-09-04T20:41:28.651Z,99.90
2022-09-04T20:44:44.518Z,99.90
2022-09-04T20:52:43.516Z,99.90
2022-09-04T20:52:59.849Z,99.90
2022-09-04T20:54:28.712Z,99.90
2022-09-04T21:03:07.239Z,99.90
2022-09-04T21:03:14.506Z,99.90
2022-09-04T21:03:40.659Z,99.90
2022-09-04T21:06:36.316Z,99.90
2022-09-04T21:09:35.488Z,99.90
2022-09-04T21:12:44.817Z,99.90
2022-09-04T21:15:39.689Z,99.90
2022-09-04T21:18:40.556Z,99.90
2022-09-04T21:21:49.340Z,99.90
2022-09-04T21:24:53.830Z,99.90
2022-09-04T21:27:56.397Z,99.90
2022-09-04T21:31:05.663Z,99.90
2022-09-04T21:34:05.223Z,99.90
2022-09-04T21:36:48.236Z,99.90
2022-09-04T21:39:55.099Z,99.90
2022-09-04T21:42:58.640Z,99.90
2022-09-04T21:46:08.698Z,99.90
2022-09-04T21:49:00.938Z,99.90
2022-09-04T21:52:06.473Z,99.90
2022-09-04T21:57:08.975Z,99.90
2022-09-04T22:02:35.107Z,99.90
2022-09-04T22:02:40.456Z,99.90
2022-09-04T22:05:11.440Z,99.90
2022-09-04T22:13:29.152Z,99.90
2022-09-04T22:13:43.092Z,99.90
2022-09-04T22:14:43.943Z,99.90
2022-09-04T22:17:40.996Z,99.90
2022-09-04T22:20:49.658Z,99.90
2022-09-04T22:23:48.214Z,99.90
2022-09-04T22:26:56.936Z,99.90
2022-09-04T22:30:03.428Z,99.90
2022-09-04T22:33:05.179Z,99.90
2022-09-04T22:36:15.273Z,99.90
2022-09-04T22:39:27.436Z,99.90
2022-09-04T22:42:28.683Z,99.90
2022-09-04T22:45:32.829Z,99.90
2022-09-04T22:48:32.242Z,99.90
2022-09-04T22:51:41.008Z,99.90
2022-09-04T22:54:41.793Z,99.90
2022-09-04T22:57:31.966Z,99.90
2022-09-04T23:00:13.600Z,99.90
2022-09-04T23:03:22.739Z,99.90
2022-09-04T23:11:05.699Z,99.90
2022-09-04T23:13:49.103Z,99.90
2022-09-04T23:13:57.108Z,99.90
2022-09-04T23:16:26.225Z,99.90
2022-09-04T23:23:41.544Z,99.90
2022-09-04T23:26:44.297Z,99.90
2022-09-04T23:26:47.175Z,99.90
2022-09-04T23:29:44.705Z,99.90
2022-09-04T23:32:47.398Z,99.90
2022-09-04T23:35:47.515Z,99.90
2022-09-04T23:38:51.649Z,99.90
2022-09-04T23:42:00.319Z,99.90
2022-09-04T23:45:01.238Z,99.90
2022-09-04T23:48:09.940Z,99.90
2022-09-04T23:51:13.936Z,99.90
2022-09-04T23:54:18.224Z,99.90
2022-09-04T23:57:25.933Z,99.90
